sensor_id;sensor_type;location;lat;lon;timestamp;temperature;humidity
17154;DHT22;8692;52.164;7.558;2023-08-12T00:00:23;21.60;99.90
17154;DHT22;8692;52.164;7.558;2023-08-12T00:02:51;21.60;99.90
17154;DHT22;8692;52.164;7.558;2023-08-12T00:05:19;21.60;99.90
17154;DHT22;8692;52.164;7.558;2023-08-12T00:07:48;21.60;99.90
17154;DHT22;8692;52.164;7.558;2023-08-12T00:10:16;21.50;99.90
17154;DHT22;8692;52.164;7.558;2023-08-12T00:12:44;21.50;99.90
17154;DHT22;8692;52.164;7.558;2023-08-12T00:15:14;21.40;99.90
17154;DHT22;8692;52.164;7.558;2023-08-12T00:17:42;21.40;99.90
17154;DHT22;8692;52.164;7.558;2023-08-12T00:20:10;21.40;99.90
17154;DHT22;8692;52.164;7.558;2023-08-12T00:22:39;21.40;99.90
17154;DHT22;8692;52.164;7.558;2023-08-12T00:25:08;21.30;99.90
17154;DHT22;8692;52.164;7.558;2023-08-12T00:27:37;21.30;99.90
17154;DHT22;8692;52.164;7.558;2023-08-12T00:30:06;21.30;99.90
17154;DHT22;8692;52.164;7.558;2023-08-12T00:32:35;21.30;99.90
17154;DHT22;8692;52.164;7.558;2023-08-12T00:35:05;21.30;99.90
17154;DHT22;8692;52.164;7.558;2023-08-12T00:37:33;21.40;99.90
17154;DHT22;8692;52.164;7.558;2023-08-12T00:40:01;21.30;99.90
17154;DHT22;8692;52.164;7.558;2023-08-12T00:42:30;21.40;99.90
17154;DHT22;8692;52.164;7.558;2023-08-12T00:44:58;21.40;99.90
17154;DHT22;8692;52.164;7.558;2023-08-12T00:47:29;21.40;99.90
17154;DHT22;8692;52.164;7.558;2023-08-12T00:49:58;21.40;99.90
17154;DHT22;8692;52.164;7.558;2023-08-12T00:52:27;21.40;99.90
17154;DHT22;8692;52.164;7.558;2023-08-12T00:54:55;21.30;99.90
17154;DHT22;8692;52.164;7.558;2023-08-12T00:57:23;21.40;99.90
17154;DHT22;8692;52.164;7.558;2023-08-12T00:59:51;21.30;99.90
17154;DHT22;8692;52.164;7.558;2023-08-12T01:02:20;21.30;99.90
17154;DHT22;8692;52.164;7.558;2023-08-12T01:04:48;21.30;99.90
17154;DHT22;8692;52.164;7.558;2023-08-12T01:07:18;21.30;99.90
17154;DHT22;8692;52.164;7.558;2023-08-12T01:09:46;21.30;99.90
17154;DHT22;8692;52.164;7.558;2023-08-12T01:12:20;21.30;99.90
17154;DHT22;8692;52.164;7.558;2023-08-12T01:14:56;21.30;99.90
17154;DHT22;8692;52.164;7.558;2023-08-12T01:17:26;21.30;99.90
17154;DHT22;8692;52.164;7.558;2023-08-12T01:19:56;21.30;99.90
17154;DHT22;8692;52.164;7.558;2023-08-12T01:22:27;21.30;99.90
17154;DHT22;8692;52.164;7.558;2023-08-12T01:25:00;21.30;99.90
17154;DHT22;8692;52.164;7.558;2023-08-12T01:27:28;21.30;99.90
17154;DHT22;8692;52.164;7.558;2023-08-12T01:29:56;21.20;99.90
17154;DHT22;8692;52.164;7.558;2023-08-12T01:32:30;21.20;99.90
17154;DHT22;8692;52.164;7.558;2023-08-12T01:35:05;21.20;99.90
17154;DHT22;8692;52.164;7.558;2023-08-12T01:37:36;21.20;99.90
17154;DHT22;8692;52.164;7.558;2023-08-12T01:40:08;21.20;99.90
17154;DHT22;8692;52.164;7.558;2023-08-12T01:42:39;21.20;99.90
17154;DHT22;8692;52.164;7.558;2023-08-12T01:45:08;21.20;99.90
17154;DHT22;8692;52.164;7.558;2023-08-12T01:47:36;21.20;99.90
17154;DHT22;8692;52.164;7.558;2023-08-12T01:50:06;21.20;99.90
17154;DHT22;8692;52.164;7.558;2023-08-12T01:52:34;21.20;99.90
17154;DHT22;8692;52.164;7.558;2023-08-12T01:55:02;21.10;99.90
17154;DHT22;8692;52.164;7.558;2023-08-12T01:57:32;21.10;99.90
17154;DHT22;8692;52.164;7.558;2023-08-12T02:00:03;21.10;99.90
17154;DHT22;8692;52.164;7.558;2023-08-12T02:02:42;21.10;99.90
17154;DHT22;8692;52.164;7.558;2023-08-12T02:05:13;21.10;99.90
17154;DHT22;8692;52.164;7.558;2023-08-12T02:07:41;21.10;99.90
17154;DHT22;8692;52.164;7.558;2023-08-12T02:10:09;21.10;99.90
17154;DHT22;8692;52.164;7.558;2023-08-12T02:12:39;21.10;99.90
17154;DHT22;8692;52.164;7.558;2023-08-12T02:15:07;21.10;99.90
17154;DHT22;8692;52.164;7.558;2023-08-12T02:17:35;21.10;99.90
17154;DHT22;8692;52.164;7.558;2023-08-12T02:20:04;21.10;99.90
17154;DHT22;8692;52.164;7.558;2023-08-12T02:22:32;21.00;99.90
17154;DHT22;8692;52.164;7.558;2023-08-12T02:25:01;21.00;99.90
17154;DHT22;8692;52.164;7.558;2023-08-12T02:27:29;21.00;99.90
17154;DHT22;8692;52.164;7.558;2023-08-12T02:29:58;21.00;99.90
17154;DHT22;8692;52.164;7.558;2023-08-12T02:32:26;21.00;99.90
17154;DHT22;8692;52.164;7.558;2023-08-12T02:34:55;21.00;99.90
17154;DHT22;8692;52.164;7.558;2023-08-12T02:37:23;21.00;99.90
17154;DHT22;8692;52.164;7.558;2023-08-12T02:39:51;21.00;99.90
17154;DHT22;8692;52.164;7.558;2023-08-12T02:42:20;21.00;99.90
17154;DHT22;8692;52.164;7.558;2023-08-12T02:44:48;20.90;99.90
17154;DHT22;8692;52.164;7.558;2023-08-12T02:47:18;20.90;99.90
17154;DHT22;8692;52.164;7.558;2023-08-12T02:49:46;20.90;99.90
17154;DHT22;8692;52.164;7.558;2023-08-12T02:52:14;20.90;99.90
17154;DHT22;8692;52.164;7.558;2023-08-12T02:54:42;20.80;99.90
17154;DHT22;8692;52.164;7.558;2023-08-12T02:57:10;20.80;99.90
17154;DHT22;8692;52.164;7.558;2023-08-12T02:59:38;20.90;99.90
17154;DHT22;8692;52.164;7.558;2023-08-12T03:02:06;20.80;99.90
17154;DHT22;8692;52.164;7.558;2023-08-12T03:04:36;20.80;99.90
17154;DHT22;8692;52.164;7.558;2023-08-12T03:07:04;20.70;99.90
17154;DHT22;8692;52.164;7.558;2023-08-12T03:09:32;20.70;99.90
17154;DHT22;8692;52.164;7.558;2023-08-12T03:12:00;20.70;99.90
17154;DHT22;8692;52.164;7.558;2023-08-12T03:14:29;20.70;99.90
17154;DHT22;8692;52.164;7.558;2023-08-12T03:16:59;20.70;99.90
17154;DHT22;8692;52.164;7.558;2023-08-12T03:19:28;20.70;99.90
17154;DHT22;8692;52.164;7.558;2023-08-12T03:21:58;20.70;99.90
17154;DHT22;8692;52.164;7.558;2023-08-12T03:24:26;20.70;99.90
17154;DHT22;8692;52.164;7.558;2023-08-12T03:26:54;20.60;99.90
17154;DHT22;8692;52.164;7.558;2023-08-12T03:29:22;20.70;99.90
17154;DHT22;8692;52.164;7.558;2023-08-12T03:31:51;20.60;99.90
17154;DHT22;8692;52.164;7.558;2023-08-12T03:34:20;20.60;99.90
17154;DHT22;8692;52.164;7.558;2023-08-12T03:36:48;20.60;99.90
17154;DHT22;8692;52.164;7.558;2023-08-12T03:39:20;20.50;99.90
17154;DHT22;8692;52.164;7.558;2023-08-12T03:41:48;20.50;99.90
17154;DHT22;8692;52.164;7.558;2023-08-12T03:44:18;20.50;99.90
17154;DHT22;8692;52.164;7.558;2023-08-12T03:46:47;20.50;99.90
17154;DHT22;8692;52.164;7.558;2023-08-12T03:49:15;20.50;99.90
17154;DHT22;8692;52.164;7.558;2023-08-12T03:51:46;20.50;99.90
17154;DHT22;8692;52.164;7.558;2023-08-12T03:54:14;20.50;99.90
17154;DHT22;8692;52.164;7.558;2023-08-12T03:56:44;20.50;99.90
17154;DHT22;8692;52.164;7.558;2023-08-12T03:59:12;20.50;99.90
17154;DHT22;8692;52.164;7.558;2023-08-12T04:01:41;20.50;99.90
17154;DHT22;8692;52.164;7.558;2023-08-12T04:04:09;20.50;99.90
17154;DHT22;8692;52.164;7.558;2023-08-12T04:06:40;20.50;99.90
17154;DHT22;8692;52.164;7.558;2023-08-12T04:09:08;20.50;99.90
17154;DHT22;8692;52.164;7.558;2023-08-12T04:11:36;20.50;99.90
17154;DHT22;8692;52.164;7.558;2023-08-12T04:14:05;20.40;99.90
17154;DHT22;8692;52.164;7.558;2023-08-12T04:16:33;20.40;99.90
17154;DHT22;8692;52.164;7.558;2023-08-12T04:19:01;20.40;99.90
17154;DHT22;8692;52.164;7.558;2023-08-12T04:21:29;20.40;99.90
17154;DHT22;8692;52.164;7.558;2023-08-12T04:23:57;20.40;99.90
17154;DHT22;8692;52.164;7.558;2023-08-12T04:26:25;20.40;99.90
17154;DHT22;8692;52.164;7.558;2023-08-12T04:28:54;20.40;99.90
17154;DHT22;8692;52.164;7.558;2023-08-12T04:31:24;20.40;99.90
17154;DHT22;8692;52.164;7.558;2023-08-12T04:33:52;20.40;99.90
17154;DHT22;8692;52.164;7.558;2023-08-12T04:36:22;20.40;99.90
17154;DHT22;8692;52.164;7.558;2023-08-12T04:38:51;20.40;99.90
17154;DHT22;8692;52.164;7.558;2023-08-12T04:41:20;20.40;99.90
17154;DHT22;8692;52.164;7.558;2023-08-12T04:43:52;20.40;99.90
17154;DHT22;8692;52.164;7.558;2023-08-12T04:46:25;20.40;99.90
17154;DHT22;8692;52.164;7.558;2023-08-12T04:48:54;20.40;99.90
17154;DHT22;8692;52.164;7.558;2023-08-12T04:51:22;20.40;99.90
17154;DHT22;8692;52.164;7.558;2023-08-12T04:53:51;20.40;99.90
17154;DHT22;8692;52.164;7.558;2023-08-12T04:56:19;20.40;99.90
17154;DHT22;8692;52.164;7.558;2023-08-12T04:58:47;20.40;99.90
17154;DHT22;8692;52.164;7.558;2023-08-12T05:01:15;20.40;99.90
17154;DHT22;8692;52.164;7.558;2023-08-12T05:03:45;20.40;99.90
17154;DHT22;8692;52.164;7.558;2023-08-12T05:06:13;20.40;99.90
17154;DHT22;8692;52.164;7.558;2023-08-12T05:08:41;20.40;99.90
17154;DHT22;8692;52.164;7.558;2023-08-12T05:11:09;20.40;99.90
17154;DHT22;8692;52.164;7.558;2023-08-12T05:13:37;20.50;99.90
17154;DHT22;8692;52.164;7.558;2023-08-12T05:16:05;20.50;99.90
17154;DHT22;8692;52.164;7.558;2023-08-12T05:18:33;20.40;99.90
17154;DHT22;8692;52.164;7.558;2023-08-12T05:21:02;20.50;99.90
17154;DHT22;8692;52.164;7.558;2023-08-12T05:23:30;20.40;99.90
17154;DHT22;8692;52.164;7.558;2023-08-12T05:25:58;20.50;99.90
17154;DHT22;8692;52.164;7.558;2023-08-12T05:28:26;20.50;99.90
17154;DHT22;8692;52.164;7.558;2023-08-12T05:30:54;20.50;99.90
17154;DHT22;8692;52.164;7.558;2023-08-12T05:33:22;20.50;99.90
17154;DHT22;8692;52.164;7.558;2023-08-12T05:35:51;20.50;99.90
17154;DHT22;8692;52.164;7.558;2023-08-12T05:38:20;20.50;99.90
17154;DHT22;8692;52.164;7.558;2023-08-12T05:40:48;20.50;99.90
17154;DHT22;8692;52.164;7.558;2023-08-12T05:43:16;20.50;99.90
17154;DHT22;8692;52.164;7.558;2023-08-12T05:45:44;20.50;99.90
17154;DHT22;8692;52.164;7.558;2023-08-12T05:48:12;20.60;99.90
17154;DHT22;8692;52.164;7.558;2023-08-12T05:50:40;20.60;99.90
17154;DHT22;8692;52.164;7.558;2023-08-12T05:53:08;20.50;99.90
17154;DHT22;8692;52.164;7.558;2023-08-12T05:55:37;20.60;99.90
17154;DHT22;8692;52.164;7.558;2023-08-12T05:58:05;20.60;99.90
17154;DHT22;8692;52.164;7.558;2023-08-12T06:00:33;20.60;99.90
17154;DHT22;8692;52.164;7.558;2023-08-12T06:03:01;20.50;99.90
17154;DHT22;8692;52.164;7.558;2023-08-12T06:05:29;20.60;99.90
17154;DHT22;8692;52.164;7.558;2023-08-12T06:07:57;20.60;99.90
17154;DHT22;8692;52.164;7.558;2023-08-12T06:10:25;20.60;99.90
17154;DHT22;8692;52.164;7.558;2023-08-12T06:12:55;20.60;99.90
17154;DHT22;8692;52.164;7.558;2023-08-12T06:15:23;20.60;99.90
17154;DHT22;8692;52.164;7.558;2023-08-12T06:17:51;20.70;99.90
17154;DHT22;8692;52.164;7.558;2023-08-12T06:20:19;20.70;99.90
17154;DHT22;8692;52.164;7.558;2023-08-12T06:22:47;20.60;99.90
17154;DHT22;8692;52.164;7.558;2023-08-12T06:25:15;20.70;99.90
17154;DHT22;8692;52.164;7.558;2023-08-12T06:27:43;20.70;99.90
17154;DHT22;8692;52.164;7.558;2023-08-12T06:30:13;20.70;99.90
17154;DHT22;8692;52.164;7.558;2023-08-12T06:32:41;20.70;99.90
17154;DHT22;8692;52.164;7.558;2023-08-12T06:35:09;20.70;99.90
17154;DHT22;8692;52.164;7.558;2023-08-12T06:37:37;20.70;99.90
17154;DHT22;8692;52.164;7.558;2023-08-12T06:40:07;20.70;99.90
17154;DHT22;8692;52.164;7.558;2023-08-12T06:42:35;20.80;99.90
17154;DHT22;8692;52.164;7.558;2023-08-12T06:45:04;20.80;99.90
17154;DHT22;8692;52.164;7.558;2023-08-12T06:47:34;20.90;99.90
17154;DHT22;8692;52.164;7.558;2023-08-12T06:50:02;20.80;99.90
17154;DHT22;8692;52.164;7.558;2023-08-12T06:52:30;20.80;99.90
17154;DHT22;8692;52.164;7.558;2023-08-12T06:54:58;20.90;99.90
17154;DHT22;8692;52.164;7.558;2023-08-12T06:57:26;20.90;99.90
17154;DHT22;8692;52.164;7.558;2023-08-12T06:59:54;21.00;99.90
17154;DHT22;8692;52.164;7.558;2023-08-12T07:02:22;20.90;99.90
17154;DHT22;8692;52.164;7.558;2023-08-12T07:04:52;20.90;99.90
17154;DHT22;8692;52.164;7.558;2023-08-12T07:07:20;20.90;99.90
17154;DHT22;8692;52.164;7.558;2023-08-12T07:09:48;20.90;99.90
17154;DHT22;8692;52.164;7.558;2023-08-12T07:12:16;20.90;99.90
17154;DHT22;8692;52.164;7.558;2023-08-12T07:14:44;20.90;99.90
17154;DHT22;8692;52.164;7.558;2023-08-12T07:17:12;20.90;99.90
17154;DHT22;8692;52.164;7.558;2023-08-12T07:19:40;21.00;99.90
17154;DHT22;8692;52.164;7.558;2023-08-12T07:22:09;20.90;99.90
17154;DHT22;8692;52.164;7.558;2023-08-12T07:24:37;20.90;99.90
17154;DHT22;8692;52.164;7.558;2023-08-12T07:27:05;21.00;99.90
17154;DHT22;8692;52.164;7.558;2023-08-12T07:29:33;20.90;99.90
17154;DHT22;8692;52.164;7.558;2023-08-12T07:32:02;20.90;99.90
17154;DHT22;8692;52.164;7.558;2023-08-12T07:34:30;20.90;99.90
17154;DHT22;8692;52.164;7.558;2023-08-12T07:36:58;21.00;99.90
17154;DHT22;8692;52.164;7.558;2023-08-12T07:39:27;21.00;99.90
17154;DHT22;8692;52.164;7.558;2023-08-12T07:41:55;20.90;99.90
17154;DHT22;8692;52.164;7.558;2023-08-12T07:44:23;20.90;99.90
17154;DHT22;8692;52.164;7.558;2023-08-12T07:46:51;21.00;99.90
17154;DHT22;8692;52.164;7.558;2023-08-12T07:49:19;21.00;99.90
17154;DHT22;8692;52.164;7.558;2023-08-12T07:51:47;21.00;99.90
17154;DHT22;8692;52.164;7.558;2023-08-12T07:54:15;21.00;99.90
17154;DHT22;8692;52.164;7.558;2023-08-12T07:56:44;21.00;99.90
17154;DHT22;8692;52.164;7.558;2023-08-12T07:59:12;21.00;99.90
17154;DHT22;8692;52.164;7.558;2023-08-12T08:01:41;21.00;99.90
17154;DHT22;8692;52.164;7.558;2023-08-12T08:04:09;21.00;99.90
17154;DHT22;8692;52.164;7.558;2023-08-12T08:06:37;21.00;99.90
17154;DHT22;8692;52.164;7.558;2023-08-12T08:09:05;21.00;99.90
17154;DHT22;8692;52.164;7.558;2023-08-12T08:11:33;21.00;99.90
17154;DHT22;8692;52.164;7.558;2023-08-12T08:14:03;21.00;99.90
17154;DHT22;8692;52.164;7.558;2023-08-12T08:16:31;21.00;99.90
17154;DHT22;8692;52.164;7.558;2023-08-12T08:18:59;20.90;99.90
17154;DHT22;8692;52.164;7.558;2023-08-12T08:21:27;20.90;99.90
17154;DHT22;8692;52.164;7.558;2023-08-12T08:23:55;21.00;99.90
17154;DHT22;8692;52.164;7.558;2023-08-12T08:26:23;21.00;99.90
17154;DHT22;8692;52.164;7.558;2023-08-12T08:28:52;21.00;99.90
17154;DHT22;8692;52.164;7.558;2023-08-12T08:31:21;21.00;99.90
17154;DHT22;8692;52.164;7.558;2023-08-12T08:33:49;21.00;99.90
17154;DHT22;8692;52.164;7.558;2023-08-12T08:36:17;21.00;99.90
17154;DHT22;8692;52.164;7.558;2023-08-12T08:38:45;20.90;99.90
17154;DHT22;8692;52.164;7.558;2023-08-12T08:41:13;20.90;99.90
17154;DHT22;8692;52.164;7.558;2023-08-12T08:43:43;20.90;99.90
17154;DHT22;8692;52.164;7.558;2023-08-12T08:46:14;20.90;99.90
17154;DHT22;8692;52.164;7.558;2023-08-12T08:48:44;20.90;99.90
17154;DHT22;8692;52.164;7.558;2023-08-12T08:51:12;20.80;99.90
17154;DHT22;8692;52.164;7.558;2023-08-12T08:53:41;20.80;99.90
17154;DHT22;8692;52.164;7.558;2023-08-12T08:56:11;20.80;99.90
17154;DHT22;8692;52.164;7.558;2023-08-12T08:58:41;20.80;99.90
17154;DHT22;8692;52.164;7.558;2023-08-12T09:01:10;20.70;99.90
17154;DHT22;8692;52.164;7.558;2023-08-12T09:03:39;20.70;99.90
17154;DHT22;8692;52.164;7.558;2023-08-12T09:06:09;20.70;99.90
17154;DHT22;8692;52.164;7.558;2023-08-12T09:08:41;20.70;99.90
17154;DHT22;8692;52.164;7.558;2023-08-12T09:11:12;20.60;99.90
17154;DHT22;8692;52.164;7.558;2023-08-12T09:13:41;20.70;99.90
17154;DHT22;8692;52.164;7.558;2023-08-12T09:16:09;20.60;99.90
17154;DHT22;8692;52.164;7.558;2023-08-12T09:18:38;20.70;99.90
17154;DHT22;8692;52.164;7.558;2023-08-12T09:21:06;20.70;99.90
17154;DHT22;8692;52.164;7.558;2023-08-12T09:23:37;20.70;99.90
17154;DHT22;8692;52.164;7.558;2023-08-12T09:26:13;20.70;99.90
17154;DHT22;8692;52.164;7.558;2023-08-12T09:28:41;20.70;99.90
17154;DHT22;8692;52.164;7.558;2023-08-12T09:31:22;20.70;99.90
17154;DHT22;8692;52.164;7.558;2023-08-12T09:33:50;20.80;99.90
17154;DHT22;8692;52.164;7.558;2023-08-12T09:36:19;20.70;99.90
17154;DHT22;8692;52.164;7.558;2023-08-12T09:38:51;20.80;99.90
17154;DHT22;8692;52.164;7.558;2023-08-12T09:41:19;20.80;99.90
17154;DHT22;8692;52.164;7.558;2023-08-12T09:43:47;20.80;99.90
17154;DHT22;8692;52.164;7.558;2023-08-12T09:46:15;20.80;99.90
17154;DHT22;8692;52.164;7.558;2023-08-12T09:48:43;20.90;99.90
17154;DHT22;8692;52.164;7.558;2023-08-12T09:51:11;20.90;99.90
17154;DHT22;8692;52.164;7.558;2023-08-12T09:53:40;21.00;99.90
17154;DHT22;8692;52.164;7.558;2023-08-12T09:56:12;21.00;99.90
17154;DHT22;8692;52.164;7.558;2023-08-12T09:58:41;21.00;99.90
17154;DHT22;8692;52.164;7.558;2023-08-12T10:01:11;21.00;99.90
17154;DHT22;8692;52.164;7.558;2023-08-12T10:03:40;21.10;99.90
17154;DHT22;8692;52.164;7.558;2023-08-12T10:06:09;21.10;99.90
17154;DHT22;8692;52.164;7.558;2023-08-12T10:08:37;21.10;99.90
17154;DHT22;8692;52.164;7.558;2023-08-12T10:11:06;21.10;99.90
17154;DHT22;8692;52.164;7.558;2023-08-12T10:13:41;21.10;99.90
17154;DHT22;8692;52.164;7.558;2023-08-12T10:16:09;21.10;99.90
17154;DHT22;8692;52.164;7.558;2023-08-12T10:18:39;21.10;99.90
17154;DHT22;8692;52.164;7.558;2023-08-12T10:21:09;21.10;99.90
17154;DHT22;8692;52.164;7.558;2023-08-12T10:23:38;21.10;99.90
17154;DHT22;8692;52.164;7.558;2023-08-12T10:26:08;21.10;99.90
17154;DHT22;8692;52.164;7.558;2023-08-12T10:28:36;21.10;99.90
17154;DHT22;8692;52.164;7.558;2023-08-12T10:31:06;21.10;99.90
17154;DHT22;8692;52.164;7.558;2023-08-12T10:33:38;21.20;99.90
17154;DHT22;8692;52.164;7.558;2023-08-12T10:36:07;21.10;99.90
17154;DHT22;8692;52.164;7.558;2023-08-12T10:38:36;21.10;99.90
17154;DHT22;8692;52.164;7.558;2023-08-12T10:41:16;21.10;99.90
17154;DHT22;8692;52.164;7.558;2023-08-12T10:43:52;21.00;99.90
17154;DHT22;8692;52.164;7.558;2023-08-12T10:46:29;21.00;99.90
17154;DHT22;8692;52.164;7.558;2023-08-12T10:48:59;21.00;99.90
17154;DHT22;8692;52.164;7.558;2023-08-12T10:51:40;21.10;99.90
17154;DHT22;8692;52.164;7.558;2023-08-12T10:54:14;21.10;99.90
17154;DHT22;8692;52.164;7.558;2023-08-12T10:57:09;21.10;99.90
17154;DHT22;8692;52.164;7.558;2023-08-12T10:59:53;21.20;99.90
17154;DHT22;8692;52.164;7.558;2023-08-12T11:02:31;21.30;99.90
17154;DHT22;8692;52.164;7.558;2023-08-12T11:05:02;21.30;99.90
17154;DHT22;8692;52.164;7.558;2023-08-12T11:07:37;21.30;99.90
17154;DHT22;8692;52.164;7.558;2023-08-12T11:10:10;21.40;99.90
17154;DHT22;8692;52.164;7.558;2023-08-12T11:12:40;21.40;99.90
17154;DHT22;8692;52.164;7.558;2023-08-12T11:15:10;21.40;99.90
17154;DHT22;8692;52.164;7.558;2023-08-12T11:17:40;21.40;99.90
17154;DHT22;8692;52.164;7.558;2023-08-12T11:20:10;21.40;99.90
17154;DHT22;8692;52.164;7.558;2023-08-12T11:22:40;21.40;99.90
17154;DHT22;8692;52.164;7.558;2023-08-12T11:25:10;21.40;99.90
17154;DHT22;8692;52.164;7.558;2023-08-12T11:27:42;21.40;99.90
17154;DHT22;8692;52.164;7.558;2023-08-12T11:30:12;21.40;99.90
17154;DHT22;8692;52.164;7.558;2023-08-12T11:32:44;21.40;99.90
17154;DHT22;8692;52.164;7.558;2023-08-12T11:35:14;21.50;99.90
17154;DHT22;8692;52.164;7.558;2023-08-12T11:37:44;21.50;99.90
17154;DHT22;8692;52.164;7.558;2023-08-12T11:40:14;21.50;99.90
17154;DHT22;8692;52.164;7.558;2023-08-12T11:42:44;21.50;99.90
17154;DHT22;8692;52.164;7.558;2023-08-12T11:45:14;21.50;99.90
17154;DHT22;8692;52.164;7.558;2023-08-12T11:47:44;21.60;99.90
17154;DHT22;8692;52.164;7.558;2023-08-12T11:50:14;21.60;99.90
17154;DHT22;8692;52.164;7.558;2023-08-12T11:52:42;21.60;99.90
17154;DHT22;8692;52.164;7.558;2023-08-12T11:55:10;21.70;99.90
17154;DHT22;8692;52.164;7.558;2023-08-12T11:57:39;21.70;99.90
17154;DHT22;8692;52.164;7.558;2023-08-12T12:00:09;21.80;99.90
17154;DHT22;8692;52.164;7.558;2023-08-12T12:02:45;21.90;99.90
17154;DHT22;8692;52.164;7.558;2023-08-12T12:05:14;21.90;99.90
17154;DHT22;8692;52.164;7.558;2023-08-12T12:07:42;22.00;99.90
17154;DHT22;8692;52.164;7.558;2023-08-12T12:10:13;22.00;99.90
17154;DHT22;8692;52.164;7.558;2023-08-12T12:12:43;22.10;99.90
17154;DHT22;8692;52.164;7.558;2023-08-12T12:15:12;22.20;99.90
17154;DHT22;8692;52.164;7.558;2023-08-12T12:17:41;22.30;99.90
17154;DHT22;8692;52.164;7.558;2023-08-12T12:20:11;22.40;99.90
17154;DHT22;8692;52.164;7.558;2023-08-12T12:22:42;22.40;99.90
17154;DHT22;8692;52.164;7.558;2023-08-12T12:25:12;22.50;99.90
17154;DHT22;8692;52.164;7.558;2023-08-12T12:27:42;22.60;99.90
17154;DHT22;8692;52.164;7.558;2023-08-12T12:30:13;22.70;99.90
17154;DHT22;8692;52.164;7.558;2023-08-12T12:32:42;22.80;99.90
17154;DHT22;8692;52.164;7.558;2023-08-12T12:35:11;22.80;99.90
17154;DHT22;8692;52.164;7.558;2023-08-12T12:37:39;22.90;99.90
17154;DHT22;8692;52.164;7.558;2023-08-12T12:40:09;23.00;99.90
17154;DHT22;8692;52.164;7.558;2023-08-12T12:42:37;23.00;99.90
17154;DHT22;8692;52.164;7.558;2023-08-12T12:45:07;23.00;99.90
17154;DHT22;8692;52.164;7.558;2023-08-12T12:47:35;23.00;99.90
17154;DHT22;8692;52.164;7.558;2023-08-12T12:50:05;23.00;99.90
17154;DHT22;8692;52.164;7.558;2023-08-12T12:52:34;23.00;99.90
17154;DHT22;8692;52.164;7.558;2023-08-12T12:55:03;23.00;99.90
17154;DHT22;8692;52.164;7.558;2023-08-12T12:57:31;23.10;99.90
17154;DHT22;8692;52.164;7.558;2023-08-12T12:59:59;23.10;99.90
17154;DHT22;8692;52.164;7.558;2023-08-12T13:02:27;23.10;99.90
17154;DHT22;8692;52.164;7.558;2023-08-12T13:04:55;23.10;99.90
17154;DHT22;8692;52.164;7.558;2023-08-12T13:07:23;23.10;99.90
17154;DHT22;8692;52.164;7.558;2023-08-12T13:09:53;23.10;99.90
17154;DHT22;8692;52.164;7.558;2023-08-12T13:12:21;23.10;99.90
17154;DHT22;8692;52.164;7.558;2023-08-12T13:14:49;23.10;99.90
17154;DHT22;8692;52.164;7.558;2023-08-12T13:17:17;23.10;99.90
17154;DHT22;8692;52.164;7.558;2023-08-12T13:19:44;23.10;99.90
17154;DHT22;8692;52.164;7.558;2023-08-12T13:22:12;23.20;99.90
17154;DHT22;8692;52.164;7.558;2023-08-12T13:24:41;23.30;99.90
17154;DHT22;8692;52.164;7.558;2023-08-12T13:27:11;23.30;99.90
17154;DHT22;8692;52.164;7.558;2023-08-12T13:29:39;23.40;99.90
17154;DHT22;8692;52.164;7.558;2023-08-12T13:32:07;23.40;99.90
17154;DHT22;8692;52.164;7.558;2023-08-12T13:34:35;23.40;99.90
17154;DHT22;8692;52.164;7.558;2023-08-12T13:37:04;23.40;99.90
17154;DHT22;8692;52.164;7.558;2023-08-12T13:39:32;23.40;99.90
17154;DHT22;8692;52.164;7.558;2023-08-12T13:42:00;23.50;99.90
17154;DHT22;8692;52.164;7.558;2023-08-12T13:44:30;23.50;99.90
17154;DHT22;8692;52.164;7.558;2023-08-12T13:46:58;23.50;99.90
17154;DHT22;8692;52.164;7.558;2023-08-12T13:49:26;23.60;99.90
17154;DHT22;8692;52.164;7.558;2023-08-12T13:51:54;23.60;99.90
17154;DHT22;8692;52.164;7.558;2023-08-12T13:54:22;23.60;99.90
17154;DHT22;8692;52.164;7.558;2023-08-12T13:56:50;23.60;99.90
17154;DHT22;8692;52.164;7.558;2023-08-12T13:59:18;23.60;99.90
17154;DHT22;8692;52.164;7.558;2023-08-12T14:01:48;23.60;99.90
17154;DHT22;8692;52.164;7.558;2023-08-12T14:04:16;23.60;99.90
17154;DHT22;8692;52.164;7.558;2023-08-12T14:06:44;23.60;99.90
17154;DHT22;8692;52.164;7.558;2023-08-12T14:09:13;23.60;99.90
17154;DHT22;8692;52.164;7.558;2023-08-12T14:11:41;23.70;99.90
17154;DHT22;8692;52.164;7.558;2023-08-12T14:14:09;23.90;99.90
17154;DHT22;8692;52.164;7.558;2023-08-12T14:16:37;24.00;99.90
17154;DHT22;8692;52.164;7.558;2023-08-12T14:19:06;24.10;99.90
17154;DHT22;8692;52.164;7.558;2023-08-12T14:21:35;24.20;99.90
17154;DHT22;8692;52.164;7.558;2023-08-12T14:24:03;24.20;99.90
17154;DHT22;8692;52.164;7.558;2023-08-12T14:26:31;24.20;99.90
17154;DHT22;8692;52.164;7.558;2023-08-12T14:29:00;24.20;99.90
17154;DHT22;8692;52.164;7.558;2023-08-12T14:31:28;24.10;99.90
17154;DHT22;8692;52.164;7.558;2023-08-12T14:33:56;24.00;99.90
17154;DHT22;8692;52.164;7.558;2023-08-12T14:36:25;23.90;99.90
17154;DHT22;8692;52.164;7.558;2023-08-12T14:38:53;23.90;99.90
17154;DHT22;8692;52.164;7.558;2023-08-12T14:41:21;23.90;99.90
17154;DHT22;8692;52.164;7.558;2023-08-12T14:43:52;23.90;99.90
17154;DHT22;8692;52.164;7.558;2023-08-12T14:46:20;23.90;99.90
17154;DHT22;8692;52.164;7.558;2023-08-12T14:48:48;23.80;99.90
17154;DHT22;8692;52.164;7.558;2023-08-12T14:51:17;23.80;99.90
17154;DHT22;8692;52.164;7.558;2023-08-12T14:53:46;23.80;99.90
17154;DHT22;8692;52.164;7.558;2023-08-12T14:56:15;23.70;99.90
17154;DHT22;8692;52.164;7.558;2023-08-12T14:58:43;23.70;99.90
17154;DHT22;8692;52.164;7.558;2023-08-12T15:01:11;23.60;99.90
17154;DHT22;8692;52.164;7.558;2023-08-12T15:03:39;23.50;99.90
17154;DHT22;8692;52.164;7.558;2023-08-12T15:06:08;23.40;99.90
17154;DHT22;8692;52.164;7.558;2023-08-12T15:08:36;23.30;99.90
17154;DHT22;8692;52.164;7.558;2023-08-12T15:11:05;23.30;99.90
17154;DHT22;8692;52.164;7.558;2023-08-12T15:13:33;23.30;99.90
17154;DHT22;8692;52.164;7.558;2023-08-12T15:16:01;23.50;99.90
17154;DHT22;8692;52.164;7.558;2023-08-12T15:18:29;23.60;99.90
17154;DHT22;8692;52.164;7.558;2023-08-12T15:20:57;23.80;99.90
17154;DHT22;8692;52.164;7.558;2023-08-12T15:23:25;24.00;99.90
17154;DHT22;8692;52.164;7.558;2023-08-12T15:25:53;24.10;99.90
17154;DHT22;8692;52.164;7.558;2023-08-12T15:28:22;24.30;99.90
17154;DHT22;8692;52.164;7.558;2023-08-12T15:30:51;24.40;99.90
17154;DHT22;8692;52.164;7.558;2023-08-12T15:33:19;24.60;99.90
17154;DHT22;8692;52.164;7.558;2023-08-12T15:35:47;24.60;99.90
17154;DHT22;8692;52.164;7.558;2023-08-12T15:38:15;24.80;99.90
17154;DHT22;8692;52.164;7.558;2023-08-12T15:40:43;24.90;99.90
17154;DHT22;8692;52.164;7.558;2023-08-12T15:43:11;24.80;99.90
17154;DHT22;8692;52.164;7.558;2023-08-12T15:45:41;24.80;99.90
17154;DHT22;8692;52.164;7.558;2023-08-12T15:48:10;24.80;99.90
17154;DHT22;8692;52.164;7.558;2023-08-12T15:50:38;24.80;99.90
17154;DHT22;8692;52.164;7.558;2023-08-12T15:53:08;24.90;99.90
17154;DHT22;8692;52.164;7.558;2023-08-12T15:55:37;24.90;99.90